sensor_id;sensor_type;location;lat;lon;timestamp;temperature;humidity
3037;DHT22;1528;52.550;13.408;2023-02-15T00:01:11;7.10;48.50
3037;DHT22;1528;52.550;13.408;2023-02-15T00:03:56;7.10;48.40
3037;DHT22;1528;52.550;13.408;2023-02-15T00:06:43;6.90;49.30
3037;DHT22;1528;52.550;13.408;2023-02-15T00:09:29;6.90;49.10
3037;DHT22;1528;52.550;13.408;2023-02-15T00:12:15;7.00;49.50
3037;DHT22;1528;52.550;13.408;2023-02-15T00:15:00;6.90;49.00
3037;DHT22;1528;52.550;13.408;2023-02-15T00:17:46;6.90;49.40
3037;DHT22;1528;52.550;13.408;2023-02-15T00:20:32;6.90;49.50
3037;DHT22;1528;52.550;13.408;2023-02-15T00:23:19;7.00;50.40
3037;DHT22;1528;52.550;13.408;2023-02-15T00:26:06;6.70;51.10
3037;DHT22;1528;52.550;13.408;2023-02-15T00:28:52;6.70;50.80
3037;DHT22;1528;52.550;13.408;2023-02-15T00:31:38;6.60;51.20
3037;DHT22;1528;52.550;13.408;2023-02-15T00:34:25;6.60;51.80
3037;DHT22;1528;52.550;13.408;2023-02-15T00:37:11;6.60;51.60
3037;DHT22;1528;52.550;13.408;2023-02-15T00:39:58;6.60;51.40
3037;DHT22;1528;52.550;13.408;2023-02-15T00:42:43;6.50;53.10
3037;DHT22;1528;52.550;13.408;2023-02-15T00:45:28;6.50;52.80
3037;DHT22;1528;52.550;13.408;2023-02-15T00:48:14;6.40;53.30
3037;DHT22;1528;52.550;13.408;2023-02-15T00:51:00;6.50;53.20
3037;DHT22;1528;52.550;13.408;2023-02-15T00:53:46;6.70;53.20
3037;DHT22;1528;52.550;13.408;2023-02-15T00:56:34;6.50;53.50
3037;DHT22;1528;52.550;13.408;2023-02-15T00:59:20;6.50;53.20
3037;DHT22;1528;52.550;13.408;2023-02-15T01:02:06;6.40;53.20
3037;DHT22;1528;52.550;13.408;2023-02-15T01:04:51;6.40;52.50
3037;DHT22;1528;52.550;13.408;2023-02-15T01:07:37;6.40;53.40
3037;DHT22;1528;52.550;13.408;2023-02-15T01:10:23;6.40;53.30
3037;DHT22;1528;52.550;13.408;2023-02-15T01:13:10;6.40;53.20
3037;DHT22;1528;52.550;13.408;2023-02-15T01:15:55;6.30;52.70
3037;DHT22;1528;52.550;13.408;2023-02-15T01:18:41;6.30;53.50
3037;DHT22;1528;52.550;13.408;2023-02-15T01:21:26;6.30;53.40
3037;DHT22;1528;52.550;13.408;2023-02-15T01:24:13;6.30;53.30
3037;DHT22;1528;52.550;13.408;2023-02-15T01:26:59;6.30;53.20
3037;DHT22;1528;52.550;13.408;2023-02-15T01:29:46;6.30;53.70
3037;DHT22;1528;52.550;13.408;2023-02-15T01:32:32;6.30;53.50
3037;DHT22;1528;52.550;13.408;2023-02-15T01:35:18;6.20;53.60
3037;DHT22;1528;52.550;13.408;2023-02-15T01:38:04;6.20;53.90
3037;DHT22;1528;52.550;13.408;2023-02-15T01:40:51;6.20;53.80
3037;DHT22;1528;52.550;13.408;2023-02-15T01:43:41;6.20;53.60
3037;DHT22;1528;52.550;13.408;2023-02-15T01:46:32;6.20;53.80
3037;DHT22;1528;52.550;13.408;2023-02-15T01:49:21;6.10;54.00
3037;DHT22;1528;52.550;13.408;2023-02-15T01:52:09;6.10;54.20
3037;DHT22;1528;52.550;13.408;2023-02-15T01:54:56;6.10;54.40
3037;DHT22;1528;52.550;13.408;2023-02-15T01:57:42;6.10;54.30
3037;DHT22;1528;52.550;13.408;2023-02-15T02:00:29;6.10;54.60
3037;DHT22;1528;52.550;13.408;2023-02-15T02:03:27;6.00;54.80
3037;DHT22;1528;52.550;13.408;2023-02-15T02:06:15;6.00;55.50
3037;DHT22;1528;52.550;13.408;2023-02-15T02:09:01;6.00;55.30
3037;DHT22;1528;52.550;13.408;2023-02-15T02:11:48;5.90;55.30
3037;DHT22;1528;52.550;13.408;2023-02-15T02:14:33;5.90;55.30
3037;DHT22;1528;52.550;13.408;2023-02-15T02:17:24;5.90;55.90
3037;DHT22;1528;52.550;13.408;2023-02-15T02:20:35;5.80;56.30
3037;DHT22;1528;52.550;13.408;2023-02-15T02:23:43;5.80;56.60
3037;DHT22;1528;52.550;13.408;2023-02-15T02:27:06;5.80;56.60
3037;DHT22;1528;52.550;13.408;2023-02-15T02:30:24;5.60;58.20
3037;DHT22;1528;52.550;13.408;2023-02-15T02:33:33;5.60;59.70
3037;DHT22;1528;52.550;13.408;2023-02-15T02:36:30;5.60;59.50
3037;DHT22;1528;52.550;13.408;2023-02-15T02:39:24;5.60;58.70
3037;DHT22;1528;52.550;13.408;2023-02-15T02:42:15;5.70;58.20
3037;DHT22;1528;52.550;13.408;2023-02-15T02:45:06;5.60;58.30
3037;DHT22;1528;52.550;13.408;2023-02-15T02:47:55;5.60;59.10
3037;DHT22;1528;52.550;13.408;2023-02-15T02:50:43;5.50;59.80
3037;DHT22;1528;52.550;13.408;2023-02-15T02:53:30;5.50;60.50
3037;DHT22;1528;52.550;13.408;2023-02-15T02:56:21;5.60;58.90
3037;DHT22;1528;52.550;13.408;2023-02-15T02:59:11;5.50;58.60
3037;DHT22;1528;52.550;13.408;2023-02-15T03:02:01;5.50;58.60
3037;DHT22;1528;52.550;13.408;2023-02-15T03:04:54;5.40;59.70
3037;DHT22;1528;52.550;13.408;2023-02-15T03:07:50;5.50;60.00
3037;DHT22;1528;52.550;13.408;2023-02-15T03:10:38;5.40;59.50
3037;DHT22;1528;52.550;13.408;2023-02-15T03:13:24;5.40;59.30
3037;DHT22;1528;52.550;13.408;2023-02-15T03:16:10;5.40;59.00
3037;DHT22;1528;52.550;13.408;2023-02-15T03:19:14;5.40;59.10
3037;DHT22;1528;52.550;13.408;2023-02-15T03:22:04;5.30;60.40
3037;DHT22;1528;52.550;13.408;2023-02-15T03:24:57;5.20;60.70
3037;DHT22;1528;52.550;13.408;2023-02-15T03:27:47;5.00;63.40
3037;DHT22;1528;52.550;13.408;2023-02-15T03:30:34;5.00;64.20
3037;DHT22;1528;52.550;13.408;2023-02-15T03:33:21;5.10;64.50
3037;DHT22;1528;52.550;13.408;2023-02-15T03:36:12;5.10;63.90
3037;DHT22;1528;52.550;13.408;2023-02-15T03:39:09;5.00;64.20
3037;DHT22;1528;52.550;13.408;2023-02-15T03:42:01;4.90;65.40
3037;DHT22;1528;52.550;13.408;2023-02-15T03:44:55;4.90;65.90
3037;DHT22;1528;52.550;13.408;2023-02-15T03:47:44;5.10;64.60
3037;DHT22;1528;52.550;13.408;2023-02-15T03:50:32;5.00;63.20
3037;DHT22;1528;52.550;13.408;2023-02-15T03:53:39;4.90;64.70
3037;DHT22;1528;52.550;13.408;2023-02-15T03:56:25;4.90;64.20
3037;DHT22;1528;52.550;13.408;2023-02-15T03:59:12;5.00;64.10
3037;DHT22;1528;52.550;13.408;2023-02-15T04:02:20;5.00;65.10
3037;DHT22;1528;52.550;13.408;2023-02-15T04:05:07;4.80;64.30
3037;DHT22;1528;52.550;13.408;2023-02-15T04:07:52;4.80;64.20
3037;DHT22;1528;52.550;13.408;2023-02-15T04:10:38;4.80;63.80
3037;DHT22;1528;52.550;13.408;2023-02-15T04:13:43;4.80;63.90
3037;DHT22;1528;52.550;13.408;2023-02-15T04:16:30;4.80;62.30
3037;DHT22;1528;52.550;13.408;2023-02-15T04:19:14;4.90;62.60
3037;DHT22;1528;52.550;13.408;2023-02-15T04:22:17;4.90;62.60
3037;DHT22;1528;52.550;13.408;2023-02-15T04:25:20;4.90;61.30
3037;DHT22;1528;52.550;13.408;2023-02-15T04:28:06;4.70;60.50
3037;DHT22;1528;52.550;13.408;2023-02-15T04:30:52;4.50;62.60
3037;DHT22;1528;52.550;13.408;2023-02-15T04:33:39;4.50;63.30
3037;DHT22;1528;52.550;13.408;2023-02-15T04:36:24;4.60;61.90
3037;DHT22;1528;52.550;13.408;2023-02-15T04:39:12;4.40;63.10
3037;DHT22;1528;52.550;13.408;2023-02-15T04:41:58;4.50;63.60
3037;DHT22;1528;52.550;13.408;2023-02-15T04:44:44;4.50;61.80
3037;DHT22;1528;52.550;13.408;2023-02-15T04:47:30;4.60;61.20
3037;DHT22;1528;52.550;13.408;2023-02-15T04:50:17;4.50;60.30
3037;DHT22;1528;52.550;13.408;2023-02-15T04:53:02;4.50;62.20
3037;DHT22;1528;52.550;13.408;2023-02-15T04:55:48;4.60;60.20
3037;DHT22;1528;52.550;13.408;2023-02-15T04:58:34;4.60;59.90
3037;DHT22;1528;52.550;13.408;2023-02-15T05:01:22;4.60;59.90
3037;DHT22;1528;52.550;13.408;2023-02-15T05:04:07;4.50;60.30
3037;DHT22;1528;52.550;13.408;2023-02-15T05:06:54;4.40;61.10
3037;DHT22;1528;52.550;13.408;2023-02-15T05:09:40;4.40;61.10
3037;DHT22;1528;52.550;13.408;2023-02-15T05:12:25;4.40;59.30
3037;DHT22;1528;52.550;13.408;2023-02-15T05:15:11;4.60;59.90
3037;DHT22;1528;52.550;13.408;2023-02-15T05:17:57;4.30;60.50
3037;DHT22;1528;52.550;13.408;2023-02-15T05:20:45;4.30;59.90
3037;DHT22;1528;52.550;13.408;2023-02-15T05:23:32;4.30;59.60
3037;DHT22;1528;52.550;13.408;2023-02-15T05:26:20;4.40;59.80
3037;DHT22;1528;52.550;13.408;2023-02-15T05:29:38;4.20;59.70
3037;DHT22;1528;52.550;13.408;2023-02-15T05:32:23;4.10;60.40
3037;DHT22;1528;52.550;13.408;2023-02-15T05:35:13;4.10;61.60
3037;DHT22;1528;52.550;13.408;2023-02-15T05:37:58;4.10;60.30
3037;DHT22;1528;52.550;13.408;2023-02-15T05:40:45;4.10;60.10
3037;DHT22;1528;52.550;13.408;2023-02-15T05:43:31;4.00;61.40
3037;DHT22;1528;52.550;13.408;2023-02-15T05:46:17;4.00;61.60
3037;DHT22;1528;52.550;13.408;2023-02-15T05:49:02;4.00;62.20
3037;DHT22;1528;52.550;13.408;2023-02-15T05:51:48;4.10;63.80
3037;DHT22;1528;52.550;13.408;2023-02-15T05:54:34;4.00;63.00
3037;DHT22;1528;52.550;13.408;2023-02-15T05:57:21;4.00;63.80
3037;DHT22;1528;52.550;13.408;2023-02-15T06:00:07;4.10;62.70
3037;DHT22;1528;52.550;13.408;2023-02-15T06:02:53;4.10;62.60
3037;DHT22;1528;52.550;13.408;2023-02-15T06:05:39;4.10;62.10
3037;DHT22;1528;52.550;13.408;2023-02-15T06:08:25;4.10;62.00
3037;DHT22;1528;52.550;13.408;2023-02-15T06:11:10;4.00;63.50
3037;DHT22;1528;52.550;13.408;2023-02-15T06:13:58;3.80;66.10
3037;DHT22;1528;52.550;13.408;2023-02-15T06:16:43;4.00;64.30
3037;DHT22;1528;52.550;13.408;2023-02-15T06:19:29;3.90;64.30
3037;DHT22;1528;52.550;13.408;2023-02-15T06:22:14;3.90;64.30
3037;DHT22;1528;52.550;13.408;2023-02-15T06:25:00;4.20;64.50
3037;DHT22;1528;52.550;13.408;2023-02-15T06:27:46;4.00;63.30
3037;DHT22;1528;52.550;13.408;2023-02-15T06:30:33;4.10;61.60
3037;DHT22;1528;52.550;13.408;2023-02-15T06:33:18;4.10;60.40
3037;DHT22;1528;52.550;13.408;2023-02-15T06:36:04;4.10;60.40
3037;DHT22;1528;52.550;13.408;2023-02-15T06:38:50;4.20;61.00
3037;DHT22;1528;52.550;13.408;2023-02-15T06:41:36;4.20;61.50
3037;DHT22;1528;52.550;13.408;2023-02-15T06:44:21;4.30;61.50
3037;DHT22;1528;52.550;13.408;2023-02-15T06:47:08;4.50;62.00
3037;DHT22;1528;52.550;13.408;2023-02-15T06:49:54;4.30;61.10
3037;DHT22;1528;52.550;13.408;2023-02-15T06:52:41;4.20;62.00
3037;DHT22;1528;52.550;13.408;2023-02-15T06:55:29;4.20;63.90
3037;DHT22;1528;52.550;13.408;2023-02-15T06:58:15;4.30;61.90
3037;DHT22;1528;52.550;13.408;2023-02-15T07:01:00;4.30;61.30
3037;DHT22;1528;52.550;13.408;2023-02-15T07:03:48;4.30;61.80
3037;DHT22;1528;52.550;13.408;2023-02-15T07:06:33;4.30;61.30
3037;DHT22;1528;52.550;13.408;2023-02-15T07:09:19;4.30;61.50
3037;DHT22;1528;52.550;13.408;2023-02-15T07:12:05;4.10;63.30
3037;DHT22;1528;52.550;13.408;2023-02-15T07:15:10;4.20;63.50
3037;DHT22;1528;52.550;13.408;2023-02-15T07:17:57;4.10;63.90
3037;DHT22;1528;52.550;13.408;2023-02-15T07:20:44;4.30;62.30
3037;DHT22;1528;52.550;13.408;2023-02-15T07:23:30;4.60;62.00
3037;DHT22;1528;52.550;13.408;2023-02-15T07:26:15;4.50;60.00
3037;DHT22;1528;52.550;13.408;2023-02-15T07:29:01;4.50;60.00
3037;DHT22;1528;52.550;13.408;2023-02-15T07:31:47;4.30;61.70
3037;DHT22;1528;52.550;13.408;2023-02-15T07:34:32;4.40;61.60
3037;DHT22;1528;52.550;13.408;2023-02-15T07:37:19;4.50;63.00
3037;DHT22;1528;52.550;13.408;2023-02-15T07:40:06;4.50;60.20
3037;DHT22;1528;52.550;13.408;2023-02-15T07:42:52;4.50;60.30
3037;DHT22;1528;52.550;13.408;2023-02-15T07:45:38;4.60;60.60
3037;DHT22;1528;52.550;13.408;2023-02-15T07:48:24;4.80;59.00
3037;DHT22;1528;52.550;13.408;2023-02-15T07:51:11;4.80;58.30
3037;DHT22;1528;52.550;13.408;2023-02-15T07:53:58;4.80;58.90
3037;DHT22;1528;52.550;13.408;2023-02-15T07:56:43;4.60;60.70
3037;DHT22;1528;52.550;13.408;2023-02-15T07:59:29;4.80;59.90
3037;DHT22;1528;52.550;13.408;2023-02-15T08:02:14;5.00;58.50
3037;DHT22;1528;52.550;13.408;2023-02-15T08:05:00;5.10;57.30
3037;DHT22;1528;52.550;13.408;2023-02-15T08:07:46;5.20;56.20
3037;DHT22;1528;52.550;13.408;2023-02-15T08:10:33;5.30;54.70
3037;DHT22;1528;52.550;13.408;2023-02-15T08:13:36;5.10;54.20
3037;DHT22;1528;52.550;13.408;2023-02-15T08:16:38;5.20;55.70
3037;DHT22;1528;52.550;13.408;2023-02-15T08:19:26;5.30;55.00
3037;DHT22;1528;52.550;13.408;2023-02-15T08:22:13;5.30;55.60
3037;DHT22;1528;52.550;13.408;2023-02-15T08:24:59;5.40;54.30
3037;DHT22;1528;52.550;13.408;2023-02-15T08:27:46;5.40;53.90
3037;DHT22;1528;52.550;13.408;2023-02-15T08:30:32;5.50;52.70
3037;DHT22;1528;52.550;13.408;2023-02-15T08:33:17;5.60;52.00
3037;DHT22;1528;52.550;13.408;2023-02-15T08:36:04;5.60;52.00
3037;DHT22;1528;52.550;13.408;2023-02-15T08:38:50;5.70;52.10
3037;DHT22;1528;52.550;13.408;2023-02-15T08:41:38;5.70;51.30
3037;DHT22;1528;52.550;13.408;2023-02-15T08:44:26;5.80;50.20
3037;DHT22;1528;52.550;13.408;2023-02-15T08:47:12;5.90;50.30
3037;DHT22;1528;52.550;13.408;2023-02-15T08:49:57;5.90;49.90
3037;DHT22;1528;52.550;13.408;2023-02-15T08:52:43;6.10;49.40
3037;DHT22;1528;52.550;13.408;2023-02-15T08:55:29;6.10;49.20
3037;DHT22;1528;52.550;13.408;2023-02-15T08:58:14;5.70;50.90
3037;DHT22;1528;52.550;13.408;2023-02-15T09:01:08;5.80;50.70
3037;DHT22;1528;52.550;13.408;2023-02-15T09:03:56;5.90;50.40
3037;DHT22;1528;52.550;13.408;2023-02-15T09:06:43;6.20;48.90
3037;DHT22;1528;52.550;13.408;2023-02-15T09:09:29;6.20;49.60
3037;DHT22;1528;52.550;13.408;2023-02-15T09:12:15;6.00;49.10
3037;DHT22;1528;52.550;13.408;2023-02-15T09:15:01;5.90;49.10
3037;DHT22;1528;52.550;13.408;2023-02-15T09:17:48;6.00;49.70
3037;DHT22;1528;52.550;13.408;2023-02-15T09:20:35;6.20;48.90
3037;DHT22;1528;52.550;13.408;2023-02-15T09:23:21;6.30;49.20
3037;DHT22;1528;52.550;13.408;2023-02-15T09:26:09;6.40;48.90
3037;DHT22;1528;52.550;13.408;2023-02-15T09:28:56;6.50;48.20
3037;DHT22;1528;52.550;13.408;2023-02-15T09:31:43;6.50;48.30
3037;DHT22;1528;52.550;13.408;2023-02-15T09:34:30;6.60;48.30
3037;DHT22;1528;52.550;13.408;2023-02-15T09:37:16;6.70;47.70
3037;DHT22;1528;52.550;13.408;2023-02-15T09:40:01;6.80;47.80
3037;DHT22;1528;52.550;13.408;2023-02-15T09:43:08;6.80;47.40
3037;DHT22;1528;52.550;13.408;2023-02-15T09:46:16;6.80;47.40
3037;DHT22;1528;52.550;13.408;2023-02-15T09:49:10;6.90;47.50
3037;DHT22;1528;52.550;13.408;2023-02-15T09:55:28;6.90;47.90
3037;DHT22;1528;52.550;13.408;2023-02-15T09:58:24;6.80;46.20
3037;DHT22;1528;52.550;13.408;2023-02-15T10:01:17;6.60;47.70
3037;DHT22;1528;52.550;13.408;2023-02-15T10:07:30;6.50;48.10
3037;DHT22;1528;52.550;13.408;2023-02-15T10:10:28;6.40;48.80
3037;DHT22;1528;52.550;13.408;2023-02-15T10:13:26;6.50;48.40
3037;DHT22;1528;52.550;13.408;2023-02-15T10:16:21;6.50;47.40
3037;DHT22;1528;52.550;13.408;2023-02-15T10:19:14;6.70;47.60
3037;DHT22;1528;52.550;13.408;2023-02-15T10:22:11;6.70;47.20
3037;DHT22;1528;52.550;13.408;2023-02-15T10:25:23;6.50;47.40
3037;DHT22;1528;52.550;13.408;2023-02-15T10:28:19;6.50;48.20
3037;DHT22;1528;52.550;13.408;2023-02-15T10:31:11;6.60;47.20
3037;DHT22;1528;52.550;13.408;2023-02-15T10:34:15;6.30;48.50
3037;DHT22;1528;52.550;13.408;2023-02-15T10:37:25;6.50;47.90
3037;DHT22;1528;52.550;13.408;2023-02-15T10:40:21;6.50;48.00
3037;DHT22;1528;52.550;13.408;2023-02-15T10:43:33;6.60;47.80
3037;DHT22;1528;52.550;13.408;2023-02-15T10:46:35;6.60;47.60
3037;DHT22;1528;52.550;13.408;2023-02-15T10:49:48;6.60;47.80
3037;DHT22;1528;52.550;13.408;2023-02-15T10:52:47;6.60;48.60
3037;DHT22;1528;52.550;13.408;2023-02-15T10:55:47;6.70;48.20
3037;DHT22;1528;52.550;13.408;2023-02-15T10:58:54;6.70;48.90
3037;DHT22;1528;52.550;13.408;2023-02-15T11:01:49;6.80;47.80
3037;DHT22;1528;52.550;13.408;2023-02-15T11:04:48;6.90;47.70
3037;DHT22;1528;52.550;13.408;2023-02-15T11:07:40;7.00;47.80
3037;DHT22;1528;52.550;13.408;2023-02-15T11:10:31;7.10;47.10
3037;DHT22;1528;52.550;13.408;2023-02-15T11:13:20;7.00;47.60
3037;DHT22;1528;52.550;13.408;2023-02-15T11:16:11;7.10;47.30
3037;DHT22;1528;52.550;13.408;2023-02-15T11:19:01;7.20;46.80
3037;DHT22;1528;52.550;13.408;2023-02-15T11:21:55;7.40;47.00
3037;DHT22;1528;52.550;13.408;2023-02-15T11:24:43;7.00;47.20
3037;DHT22;1528;52.550;13.408;2023-02-15T11:27:31;7.10;47.40
3037;DHT22;1528;52.550;13.408;2023-02-15T11:30:21;7.40;47.40
3037;DHT22;1528;52.550;13.408;2023-02-15T11:33:15;7.40;46.50
3037;DHT22;1528;52.550;13.408;2023-02-15T11:36:06;7.50;46.80
3037;DHT22;1528;52.550;13.408;2023-02-15T11:38:59;7.60;45.60
3037;DHT22;1528;52.550;13.408;2023-02-15T11:41:50;7.70;44.80
3037;DHT22;1528;52.550;13.408;2023-02-15T11:44:44;7.80;44.30
3037;DHT22;1528;52.550;13.408;2023-02-15T11:47:31;7.80;44.40
3037;DHT22;1528;52.550;13.408;2023-02-15T11:50:22;8.10;43.90
3037;DHT22;1528;52.550;13.408;2023-02-15T11:53:12;7.90;43.80
3037;DHT22;1528;52.550;13.408;2023-02-15T11:55:58;8.00;43.50
3037;DHT22;1528;52.550;13.408;2023-02-15T11:58:47;8.20;43.50
3037;DHT22;1528;52.550;13.408;2023-02-15T12:01:37;8.20;43.00
3037;DHT22;1528;52.550;13.408;2023-02-15T12:04:29;8.30;42.20
3037;DHT22;1528;52.550;13.408;2023-02-15T12:07:23;8.20;42.20
3037;DHT22;1528;52.550;13.408;2023-02-15T12:10:17;8.10;43.00
3037;DHT22;1528;52.550;13.408;2023-02-15T12:13:12;8.00;43.90
3037;DHT22;1528;52.550;13.408;2023-02-15T12:16:05;8.20;43.70
3037;DHT22;1528;52.550;13.408;2023-02-15T12:18:54;8.40;42.70
3037;DHT22;1528;52.550;13.408;2023-02-15T12:21:41;8.50;42.30
3037;DHT22;1528;52.550;13.408;2023-02-15T12:24:32;8.50;42.20
3037;DHT22;1528;52.550;13.408;2023-02-15T12:27:20;8.60;41.70
3037;DHT22;1528;52.550;13.408;2023-02-15T12:30:14;8.70;41.90
3037;DHT22;1528;52.550;13.408;2023-02-15T12:33:08;8.90;40.80
3037;DHT22;1528;52.550;13.408;2023-02-15T12:36:02;8.90;41.50
3037;DHT22;1528;52.550;13.408;2023-02-15T12:39:17;8.80;40.30
3037;DHT22;1528;52.550;13.408;2023-02-15T12:42:15;9.00;39.70
3037;DHT22;1528;52.550;13.408;2023-02-15T12:45:19;9.00;38.90
3037;DHT22;1528;52.550;13.408;2023-02-15T12:48:24;9.10;39.70
3037;DHT22;1528;52.550;13.408;2023-02-15T12:51:15;9.20;39.10
3037;DHT22;1528;52.550;13.408;2023-02-15T12:54:03;9.40;38.40
3037;DHT22;1528;52.550;13.408;2023-02-15T12:57:25;9.30;39.10
3037;DHT22;1528;52.550;13.408;2023-02-15T13:00:26;9.60;38.20
3037;DHT22;1528;52.550;13.408;2023-02-15T13:03:17;9.80;37.80
3037;DHT22;1528;52.550;13.408;2023-02-15T13:06:04;9.90;37.20
3037;DHT22;1528;52.550;13.408;2023-02-15T13:08:53;10.00;35.80
3037;DHT22;1528;52.550;13.408;2023-02-15T13:11:42;10.20;34.80
3037;DHT22;1528;52.550;13.408;2023-02-15T13:14:31;10.00;35.00
3037;DHT22;1528;52.550;13.408;2023-02-15T13:17:21;10.20;35.00
3037;DHT22;1528;52.550;13.408;2023-02-15T13:20:17;10.40;33.90
3037;DHT22;1528;52.550;13.408;2023-02-15T13:23:06;10.50;33.70
3037;DHT22;1528;52.550;13.408;2023-02-15T13:25:56;10.60;33.80
3037;DHT22;1528;52.550;13.408;2023-02-15T13:28:46;10.70;34.10
3037;DHT22;1528;52.550;13.408;2023-02-15T13:31:34;10.80;33.10
3037;DHT22;1528;52.550;13.408;2023-02-15T13:34:24;10.80;33.20
3037;DHT22;1528;52.550;13.408;2023-02-15T13:37:15;10.80;33.30
3037;DHT22;1528;52.550;13.408;2023-02-15T13:40:02;10.80;33.10
3037;DHT22;1528;52.550;13.408;2023-02-15T13:42:56;11.00;32.70
3037;DHT22;1528;52.550;13.408;2023-02-15T13:45:56;11.20;32.40
3037;DHT22;1528;52.550;13.408;2023-02-15T13:48:53;11.00;32.40
3037;DHT22;1528;52.550;13.408;2023-02-15T13:51:46;11.10;32.80
3037;DHT22;1528;52.550;13.408;2023-02-15T13:54:53;11.10;32.20
3037;DHT22;1528;52.550;13.408;2023-02-15T13:58:05;11.00;32.20
3037;DHT22;1528;52.550;13.408;2023-02-15T14:01:03;11.40;31.80
3037;DHT22;1528;52.550;13.408;2023-02-15T14:04:20;11.40;31.70
3037;DHT22;1528;52.550;13.408;2023-02-15T14:07:30;11.50;32.30
3037;DHT22;1528;52.550;13.408;2023-02-15T14:10:46;11.40;31.80
3037;DHT22;1528;52.550;13.408;2023-02-15T14:13:54;11.40;31.30
3037;DHT22;1528;52.550;13.408;2023-02-15T14:16:48;11.40;31.80
3037;DHT22;1528;52.550;13.408;2023-02-15T14:19:42;11.50;31.90
3037;DHT22;1528;52.550;13.408;2023-02-15T14:22:34;11.50;31.60
3037;DHT22;1528;52.550;13.408;2023-02-15T14:25:27;11.70;31.50
3037;DHT22;1528;52.550;13.408;2023-02-15T14:28:19;11.70;31.50
3037;DHT22;1528;52.550;13.408;2023-02-15T14:31:10;11.70;31.10
3037;DHT22;1528;52.550;13.408;2023-02-15T14:33:57;11.70;31.10
3037;DHT22;1528;52.550;13.408;2023-02-15T14:36:45;11.70;31.30
3037;DHT22;1528;52.550;13.408;2023-02-15T14:39:36;11.90;31.00
3037;DHT22;1528;52.550;13.408;2023-02-15T14:42:50;11.90;31.60
3037;DHT22;1528;52.550;13.408;2023-02-15T14:45:45;11.90;30.80
3037;DHT22;1528;52.550;13.408;2023-02-15T14:48:40;11.70;31.30
3037;DHT22;1528;52.550;13.408;2023-02-15T14:51:58;11.60;31.90
3037;DHT22;1528;52.550;13.408;2023-02-15T14:55:00;11.50;32.00
3037;DHT22;1528;52.550;13.408;2023-02-15T14:57:55;11.60;32.10
3037;DHT22;1528;52.550;13.408;2023-02-15T15:00:42;11.70;32.30
3037;DHT22;1528;52.550;13.408;2023-02-15T15:03:28;11.90;32.00
3037;DHT22;1528;52.550;13.408;2023-02-15T15:06:24;11.80;32.00
3037;DHT22;1528;52.550;13.408;2023-02-15T15:09:18;11.80;32.10
3037;DHT22;1528;52.550;13.408;2023-02-15T15:15:33;11.60;32.40
3037;DHT22;1528;52.550;13.408;2023-02-15T15:18:44;11.80;32.20
3037;DHT22;1528;52.550;13.408;2023-02-15T15:21:52;11.60;32.80
3037;DHT22;1528;52.550;13.408;2023-02-15T15:24:51;11.60;33.40
3037;DHT22;1528;52.550;13.408;2023-02-15T15:27:46;11.50;33.70
3037;DHT22;1528;52.550;13.408;2023-02-15T15:30:59;11.50;33.10
3037;DHT22;1528;52.550;13.408;2023-02-15T15:34:12;11.50;33.40
3037;DHT22;1528;52.550;13.408;2023-02-15T15:37:35;11.40;33.90
3037;DHT22;1528;52.550;13.408;2023-02-15T15:44:11;11.30;33.90
3037;DHT22;1528;52.550;13.408;2023-02-15T15:47:23;11.20;34.40
3037;DHT22;1528;52.550;13.408;2023-02-15T15:50:15;11.10;35.00
3037;DHT22;1528;52.550;13.408;2023-02-15T15:53:02;11.00;34.70
3037;DHT22;1528;52.550;13.408;2023-02-15T15:55:52;11.00;35.20
3037;DHT22;1528;52.550;13.408;2023-02-15T15:58:43;10.80;35.30
3037;DHT22;1528;52.550;13.408;2023-02-15T16:01:34;10.70;36.10
3037;DHT22;1528;52.550;13.408;2023-02-15T16:04:25;10.80;36.30
3037;DHT22;1528;52.550;13.408;2023-02-15T16:07:22;10.70;36.90
3037;DHT22;1528;52.550;13.408;2023-02-15T16:10:21;10.50;37.10
3037;DHT22;1528;52.550;13.408;2023-02-15T16:13:12;10.40;37.20
3037;DHT22;1528;52.550;13.408;2023-02-15T16:15:59;10.30;37.90
3037;DHT22;1528;52.550;13.408;2023-02-15T16:18:46;10.30;37.70
3037;DHT22;1528;52.550;13.408;2023-02-15T16:21:34;10.20;37.90
3037;DHT22;1528;52.550;13.408;2023-02-15T16:27:46;10.00;39.80
3037;DHT22;1528;52.550;13.408;2023-02-15T16:30:35;10.00;39.60
3037;DHT22;1528;52.550;13.408;2023-02-15T16:33:20;10.00;39.60
3037;DHT22;1528;52.550;13.408;2023-02-15T16:36:11;9.90;40.80
3037;DHT22;1528;52.550;13.408;2023-02-15T16:39:07;9.80;41.30
3037;DHT22;1528;52.550;13.408;2023-02-15T16:41:54;9.80;41.70
3037;DHT22;1528;52.550;13.408;2023-02-15T16:44:40;9.80;41.80
3037;DHT22;1528;52.550;13.408;2023-02-15T16:47:30;9.70;42.30
3037;DHT22;1528;52.550;13.408;2023-02-15T16:50:18;9.60;42.60
3037;DHT22;1528;52.550;13.408;2023-02-15T16:53:07;9.50;42.80
3037;DHT22;1528;52.550;13.408;2023-02-15T16:55:59;9.50;43.20
3037;DHT22;1528;52.550;13.408;2023-02-15T16:58:50;9.40;43.80
3037;DHT22;1528;52.550;13.408;2023-02-15T17:01:36;9.30;44.20
3037;DHT22;1528;52.550;13.408;2023-02-15T17:04:28;9.30;44.60
3037;DHT22;1528;52.550;13.408;2023-02-15T17:07:16;9.20;44.90
3037;DHT22;1528;52.550;13.408;2023-02-15T17:10:02;9.20;45.20
3037;DHT22;1528;52.550;13.408;2023-02-15T17:12:53;9.10;45.40
3037;DHT22;1528;52.550;13.408;2023-02-15T17:15:40;9.10;45.70
3037;DHT22;1528;52.550;13.408;2023-02-15T17:18:27;9.10;46.10
3037;DHT22;1528;52.550;13.408;2023-02-15T17:21:18;9.10;46.00
3037;DHT22;1528;52.550;13.408;2023-02-15T17:24:04;9.00;46.80
3037;DHT22;1528;52.550;13.408;2023-02-15T17:26:53;9.10;46.80
3037;DHT22;1528;52.550;13.408;2023-02-15T17:29:46;8.90;46.80
3037;DHT22;1528;52.550;13.408;2023-02-15T17:32:32;8.90;47.40
3037;DHT22;1528;52.550;13.408;2023-02-15T17:35:21;8.80;47.80
3037;DHT22;1528;52.550;13.408;2023-02-15T17:38:18;8.80;48.50
3037;DHT22;1528;52.550;13.408;2023-02-15T17:41:03;8.70;48.90
3037;DHT22;1528;52.550;13.408;2023-02-15T17:43:49;8.60;49.50
3037;DHT22;1528;52.550;13.408;2023-02-15T17:46:36;8.60;50.00
3037;DHT22;1528;52.550;13.408;2023-02-15T17:49:24;8.60;50.90
3037;DHT22;1528;52.550;13.408;2023-02-15T17:52:13;8.60;51.50
3037;DHT22;1528;52.550;13.408;2023-02-15T17:55:08;8.50;51.60
3037;DHT22;1528;52.550;13.408;2023-02-15T17:58:17;8.60;51.30
3037;DHT22;1528;52.550;13.408;2023-02-15T18:01:07;8.50;51.40
3037;DHT22;1528;52.550;13.408;2023-02-15T18:04:14;8.60;51.40
3037;DHT22;1528;52.550;13.408;2023-02-15T18:07:18;8.70;50.90
3037;DHT22;1528;52.550;13.408;2023-02-15T18:10:23;8.70;50.50
3037;DHT22;1528;52.550;13.408;2023-02-15T18:13:26;8.50;52.50
3037;DHT22;1528;52.550;13.408;2023-02-15T18:16:23;8.40;52.60
3037;DHT22;1528;52.550;13.408;2023-02-15T18:19:13;8.50;52.60
3037;DHT22;1528;52.550;13.408;2023-02-15T18:21:59;8.40;52.60
3037;DHT22;1528;52.550;13.408;2023-02-15T18:24:45;8.40;52.80
3037;DHT22;1528;52.550;13.408;2023-02-15T18:27:32;8.40;53.30
3037;DHT22;1528;52.550;13.408;2023-02-15T18:30:20;8.30;54.40
3037;DHT22;1528;52.550;13.408;2023-02-15T18:33:05;8.20;54.60
3037;DHT22;1528;52.550;13.408;2023-02-15T18:35:51;8.30;54.50
3037;DHT22;1528;52.550;13.408;2023-02-15T18:38:37;8.20;55.60
3037;DHT22;1528;52.550;13.408;2023-02-15T18:41:23;8.10;55.80
3037;DHT22;1528;52.550;13.408;2023-02-15T18:44:11;8.00;57.70
3037;DHT22;1528;52.550;13.408;2023-02-15T18:46:57;8.00;57.70
3037;DHT22;1528;52.550;13.408;2023-02-15T18:49:42;8.00;57.00
3037;DHT22;1528;52.550;13.408;2023-02-15T18:52:31;8.00;57.30